Stations météo

Publicité
Chamonix, France (7469): Température de l'air & dewpoint: 15.10.2019 06:00:00 - 21.10.2019 06:00:00 (CEST)Chamonix, France (7469): Vitesse du vent & gusts: 15.10.2019 06:00:00 - 21.10.2019 06:00:00 (CEST)Chamonix, France (7469): Direction du vent: 15.10.2019 06:00:00 - 21.10.2019 06:00:00 (CEST)Chamonix, France (7469): Quantités de précipitations: 15.10.2019 06:00:00 - 21.10.2019 06:00:00 (CEST)
Date & Time tt [°C] td [°C] ff [km/h] ff [knt] fx [km/h] fx [knt] dd rr [mm]
21.10.2019 06:00:00 10,2 9,6 0 0 15 8 N 0,4
21.10.2019 05:00:00 10,5 10,0 4 2 11 6 NE 0,8
21.10.2019 04:00:00 10,9 10,4 2 1 11 6 NNE 4,0
21.10.2019 03:00:00 11,2 10,6 2 1 8 4 ESE 4,0
21.10.2019 02:00:00 11,5 10,7 2 1 8 4 E -
21.10.2019 01:00:00 13,3 9,7 4 2 31 17 SSE 0,2
21.10.2019 00:00:00 14,6 7,6 5 3 35 19 ENE 0,0
20.10.2019 23:00:00 15,8 7,0 9 5 44 24 N 0,0
20.10.2019 22:00:00 17,1 6,6 5 3 37 20 N 0,0
20.10.2019 21:00:00 19,4 4,7 9 5 41 22 ESE 0,0
20.10.2019 20:00:00 19,7 3,4 5 3 46 25 SE -
20.10.2019 19:00:00 21,2 2,0 11 6 74 40 SSW 0,0
20.10.2019 18:00:00 22,3 1,3 16 9 76 41 SW 0,0
20.10.2019 17:00:00 21,9 1,5 9 5 74 40 WSW 0,0
20.10.2019 16:00:00 22,3 1,3 16 9 93 50 SSE 0,0
20.10.2019 15:00:00 22,7 2,2 21 11 94 51 SSE 0,0
20.10.2019 14:00:00 22,8 0,6 22 12 76 41 WSW -
20.10.2019 13:00:00 22,1 2,2 15 8 78 42 SE 0,0
20.10.2019 12:00:00 20,2 0,6 13 7 68 37 S 0,0
20.10.2019 11:00:00 15,0 6,5 8 4 44 24 W 0,0
20.10.2019 10:00:00 11,7 7,4 8 4 54 29 WSW 0,0
20.10.2019 09:00:00 8,4 7,3 5 3 18 10 ESE 0,0
20.10.2019 08:00:00 6,6 6,2 4 2 11 6 SSE -
20.10.2019 07:00:00 6,5 5,8 4 2 16 9 NNW 0,0
20.10.2019 06:00:00 6,7 6,1 2 1 15 8 WNW 0,0
20.10.2019 05:00:00 6,5 5,8 4 2 13 7 W 0,0
20.10.2019 04:00:00 7,2 6,3 4 2 15 8 NNW 0,0
20.10.2019 03:00:00 8,0 6,9 4 2 22 12 SSE 0,0
20.10.2019 02:00:00 7,9 7,3 4 2 15 8 W -
20.10.2019 01:00:00 7,8 7,2 4 2 15 8 NE 0,0
20.10.2019 00:00:00 7,7 7,3 4 2 13 7 NE 0,0
19.10.2019 23:00:00 8,1 7,5 4 2 11 6 ENE 0,0
19.10.2019 22:00:00 8,6 8,0 2 1 11 6 E 0,0
19.10.2019 21:00:00 9,3 8,7 4 2 11 6 NW 0,0
19.10.2019 20:00:00 9,2 8,4 2 1 11 6 NW -
19.10.2019 19:00:00 10,3 9,2 2 1 11 6 E 0,0
19.10.2019 18:00:00 12,1 10,3 4 2 8 4 NE 0,0
19.10.2019 17:00:00 13,7 9,9 2 1 28 15 NNW 0,0
19.10.2019 16:00:00 15,5 9,2 5 3 22 12 E 0,0
19.10.2019 15:00:00 14,2 9,0 4 2 22 12 S 0,0
19.10.2019 14:00:00 14,2 8,8 8 4 21 11 NE -
19.10.2019 13:00:00 15,4 11,2 4 2 11 6 W 0,0
19.10.2019 12:00:00 12,9 10,4 2 1 8 4 SE 0,0
19.10.2019 11:00:00 10,9 9,5 4 2 13 7 WSW 0,0
19.10.2019 10:00:00 9,4 9,1 2 1 9 5 N 0,6
19.10.2019 09:00:00 8,7 8,4 4 2 8 4 NNE 3,0
19.10.2019 08:00:00 8,6 8,3 4 2 8 4 NNW -
19.10.2019 07:00:00 8,7 8,4 4 2 11 6 NW 1,0
19.10.2019 06:00:00 8,8 8,5 2 1 18 10 ENE 0,8
19.10.2019 05:00:00 8,8 8,5 4 2 11 6 WNW 0,4
19.10.2019 04:00:00 8,5 8,2 4 2 13 7 N 0,0
19.10.2019 03:00:00 8,3 8,0 2 1 11 6 N 0,0
19.10.2019 02:00:00 8,5 8,2 4 2 11 6 WNW -
19.10.2019 01:00:00 8,6 8,2 0 0 8 4 N 0,0
19.10.2019 00:00:00 9,2 8,7 0 0 9 5 N 0,0
18.10.2019 23:00:00 9,5 9,0 2 1 5 3 NNW 0,0
18.10.2019 22:00:00 10,0 9,5 0 0 8 4 N 0,4
18.10.2019 21:00:00 10,3 9,8 4 2 9 5 NNW 2,0
18.10.2019 20:00:00 10,5 9,9 2 1 8 4 NNW 0,0
18.10.2019 19:00:00 10,9 10,1 0 0 8 4 N 0,0
18.10.2019 18:00:00 11,9 10,3 4 2 8 4 WNW 0,0
18.10.2019 17:00:00 12,9 11,3 0 0 8 4 N 0,0
18.10.2019 16:00:00 13,5 10,8 0 0 - - N -
18.10.2019 15:00:00 14,3 10,3 2 1 11 6 W 0,0
18.10.2019 14:00:00 12,8 10,2 2 1 9 5 NW 0,0
18.10.2019 13:00:00 11,8 10,4 0 0 8 4 N 0,0
18.10.2019 12:00:00 11,3 9,7 2 1 15 8 NNE 0,0
18.10.2019 11:00:00 9,9 9,4 4 2 - - SW -
18.10.2019 10:00:00 9,1 8,8 2 1 13 7 ESE 0,4
18.10.2019 09:00:00 8,4 8,1 4 2 11 6 ENE 0,4
18.10.2019 08:00:00 7,5 7,2 2 1 9 5 ENE -
18.10.2019 07:00:00 7,9 7,6 4 2 13 7 NNE 0,0
18.10.2019 06:00:00 8,1 7,8 4 2 13 7 E 0,0
18.10.2019 05:00:00 8,1 7,8 0 0 8 4 N 0,0
18.10.2019 04:00:00 8,8 8,5 0 0 5 3 N 0,4
18.10.2019 03:00:00 8,8 8,5 2 1 8 4 W 0,0
18.10.2019 02:00:00 8,9 8,6 2 1 5 3 W -
18.10.2019 01:00:00 9,0 8,7 2 1 11 6 N 0,4
18.10.2019 00:00:00 9,0 8,5 2 1 8 4 NE 0,2
17.10.2019 23:00:00 9,1 8,6 4 2 8 4 N 0,4
17.10.2019 22:00:00 9,3 8,8 0 0 8 4 N 0,0
17.10.2019 21:00:00 9,4 8,8 2 1 5 3 ENE 0,4
17.10.2019 20:00:00 9,7 8,8 2 1 11 6 E 0,4
17.10.2019 19:00:00 10,6 8,7 2 1 22 12 WSW 0,2
17.10.2019 18:00:00 13,4 6,5 8 4 16 9 W 0,0
17.10.2019 17:00:00 14,3 5,9 4 2 - - SW 1,0
17.10.2019 16:00:00 - - - - - - - -
17.10.2019 15:00:00 - - - - - - - -
17.10.2019 14:00:00 - - - - - - - -
17.10.2019 13:00:00 - - - - - - - -
17.10.2019 12:00:00 - - - - - - - -
17.10.2019 11:00:00 - - - - - - - -
17.10.2019 10:00:00 3,9 3,6 0 0 5 3 N 0,0
17.10.2019 09:00:00 3,9 3,6 0 0 8 4 N 0,0
17.10.2019 08:00:00 3,6 3,3 4 2 8 4 N -
17.10.2019 07:00:00 4,3 4,0 0 0 4 2 N 0,0
17.10.2019 06:00:00 5,1 4,8 4 2 9 5 NNW 0,0
17.10.2019 05:00:00 4,8 4,5 2 1 5 3 ENE 0,0
17.10.2019 04:00:00 4,2 3,9 0 0 5 3 N 0,0
17.10.2019 03:00:00 3,9 3,6 4 2 8 4 ENE 0,0
17.10.2019 02:00:00 3,7 3,3 0 0 8 4 N -
17.10.2019 01:00:00 3,3 2,9 0 0 5 3 N 0,0
17.10.2019 00:00:00 2,9 2,3 0 0 4 2 N 0,0
16.10.2019 23:00:00 3,3 2,7 0 0 5 3 N 0,0
16.10.2019 22:00:00 3,7 3,0 0 0 5 3 N 0,0
16.10.2019 21:00:00 4,3 3,4 0 0 4 2 N 0,0
16.10.2019 20:00:00 5,4 4,4 2 1 4 2 E -
16.10.2019 19:00:00 6,9 4,9 0 0 4 2 N 0,0
16.10.2019 18:00:00 10,9 5,6 0 0 11 6 N 0,0
16.10.2019 17:00:00 15,2 4,5 5 3 15 8 SW 0,0
16.10.2019 16:00:00 17,1 1,1 2 1 8 4 SSE 0,0
16.10.2019 15:00:00 15,3 0,7 2 1 8 4 E 0,0
16.10.2019 14:00:00 12,3 4,8 2 1 8 4 SE -
16.10.2019 13:00:00 8,8 6,9 2 1 8 4 ESE 0,0
16.10.2019 12:00:00 5,4 5,3 0 0 5 3 N 0,0
16.10.2019 11:00:00 1,6 1,3 0 0 4 2 N 0,0
16.10.2019 10:00:00 1,2 0,8 0 0 4 2 N 0,0
16.10.2019 09:00:00 0,9 0,5 0 0 4 2 N 0,0
16.10.2019 08:00:00 1,4 1,0 0 0 4 2 N -
16.10.2019 07:00:00 2,9 2,5 2 1 5 3 E 0,0
16.10.2019 06:00:00 3,2 2,8 0 0 4 2 N 0,0
16.10.2019 05:00:00 3,2 2,6 0 0 4 2 N 0,0
16.10.2019 04:00:00 4,3 3,9 0 0 4 2 N 0,0
16.10.2019 03:00:00 4,9 4,3 0 0 4 2 N 0,0
16.10.2019 02:00:00 5,0 4,4 0 0 8 4 N -
16.10.2019 01:00:00 5,8 4,9 0 0 13 7 N 0,0
16.10.2019 00:00:00 6,4 5,7 2 1 13 7 SW 0,0
15.10.2019 23:00:00 6,4 5,8 0 0 11 6 N 0,2
15.10.2019 22:00:00 6,4 5,8 5 3 13 7 WNW 0,0
15.10.2019 21:00:00 6,3 5,6 4 2 8 4 NNE 0,0
15.10.2019 20:00:00 6,9 5,8 4 2 13 7 WSW -
15.10.2019 19:00:00 6,7 6,0 0 0 9 5 N 0,0
15.10.2019 18:00:00 6,9 6,0 4 2 28 15 ENE 2,0
15.10.2019 17:00:00 8,2 6,3 5 3 28 15 SSW 2,0
15.10.2019 16:00:00 9,7 8,6 2 1 16 9 WNW 1,0
15.10.2019 15:00:00 10,5 9,6 2 1 11 6 SE 0,6
15.10.2019 14:00:00 10,9 10,4 0 0 4 2 N -
15.10.2019 13:00:00 10,6 10,0 0 0 8 4 N 4,0
15.10.2019 12:00:00 10,6 10,0 2 1 8 4 S 4,0
15.10.2019 11:00:00 10,8 10,0 2 1 8 4 NW 4,0
15.10.2019 10:00:00 11,2 10,3 0 0 8 4 N 3,0
15.10.2019 09:00:00 11,6 9,8 0 0 9 5 N 0,6
15.10.2019 08:00:00 13,7 7,9 2 1 34 18 SSE -
15.10.2019 07:00:00 15,2 4,8 8 4 34 18 E 0,0
15.10.2019 06:00:00 16,0 4,7 11 6 41 22 NE 0,0

tt = Température de l'air
td = dewpoint
ff = Vitesse du vent
fx = gusts
dd = Direction du vent
rr = Quantités de précipitations

stations d'obs. à proximité